sensor_id;sensor_type;location;lat;lon;timestamp;pressure;altitude;pressure_sealevel;temperature;humidity
39487;BME280;25173;50.430;18.926;2022-12-07T00:01:47;97738.56;;;5.47;70.82
39487;BME280;25173;50.430;18.926;2022-12-07T00:04:48;97745.59;;;5.48;71.07
39487;BME280;25173;50.430;18.926;2022-12-07T00:07:49;97743.00;;;5.58;70.71
39487;BME280;25173;50.430;18.926;2022-12-07T00:10:50;97731.13;;;5.59;70.57
39487;BME280;25173;50.430;18.926;2022-12-07T00:13:52;97737.66;;;5.63;70.66
39487;BME280;25173;50.430;18.926;2022-12-07T00:16:53;97735.22;;;5.62;70.65
39487;BME280;25173;50.430;18.926;2022-12-07T00:19:54;97733.97;;;5.69;70.72
39487;BME280;25173;50.430;18.926;2022-12-07T00:22:55;97735.13;;;5.78;70.65
39487;BME280;25173;50.430;18.926;2022-12-07T00:25:55;97741.94;;;5.86;70.71
39487;BME280;25173;50.430;18.926;2022-12-07T00:28:59;97732.06;;;5.92;70.31
39487;BME280;25173;50.430;18.926;2022-12-07T00:32:00;97740.72;;;5.94;70.27
39487;BME280;25173;50.430;18.926;2022-12-07T00:35:00;97736.94;;;5.95;70.18
39487;BME280;25173;50.430;18.926;2022-12-07T00:38:01;97734.50;;;5.93;70.08
39487;BME280;25173;50.430;18.926;2022-12-07T00:41:04;97740.47;;;5.95;70.19
39487;BME280;25173;50.430;18.926;2022-12-07T00:44:05;97727.19;;;5.94;69.88
39487;BME280;25173;50.430;18.926;2022-12-07T00:47:06;97721.53;;;5.95;70.13
39487;BME280;25173;50.430;18.926;2022-12-07T00:50:07;97719.66;;;5.96;70.00
39487;BME280;25173;50.430;18.926;2022-12-07T00:53:08;97718.09;;;6.00;69.93
39487;BME280;25173;50.430;18.926;2022-12-07T00:56:13;97718.13;;;6.05;70.03
39487;BME280;25173;50.430;18.926;2022-12-07T00:59:14;97714.28;;;6.01;69.45
39487;BME280;25173;50.430;18.926;2022-12-07T01:02:15;97723.19;;;5.96;69.79
39487;BME280;25173;50.430;18.926;2022-12-07T01:05:16;97719.16;;;5.99;69.96
39487;BME280;25173;50.430;18.926;2022-12-07T01:08:16;97719.41;;;5.97;69.91
39487;BME280;25173;50.430;18.926;2022-12-07T01:11:21;97714.56;;;5.99;69.82
39487;BME280;25173;50.430;18.926;2022-12-07T01:14:22;97713.75;;;5.99;69.88
39487;BME280;25173;50.430;18.926;2022-12-07T01:17:22;97717.53;;;5.98;69.93
39487;BME280;25173;50.430;18.926;2022-12-07T01:20:23;97710.97;;;5.94;70.13
39487;BME280;25173;50.430;18.926;2022-12-07T01:23:24;97713.19;;;5.97;69.86
39487;BME280;25173;50.430;18.926;2022-12-07T01:26:25;97711.59;;;6.01;70.27
39487;BME280;25173;50.430;18.926;2022-12-07T01:29:26;97719.25;;;6.09;69.85
39487;BME280;25173;50.430;18.926;2022-12-07T01:32:27;97710.53;;;6.02;69.63
39487;BME280;25173;50.430;18.926;2022-12-07T01:35:27;97706.75;;;6.03;69.76
39487;BME280;25173;50.430;18.926;2022-12-07T01:38:30;97709.22;;;6.04;69.70
39487;BME280;25173;50.430;18.926;2022-12-07T01:41:33;97708.38;;;6.04;69.83
39487;BME280;25173;50.430;18.926;2022-12-07T01:48:38;97706.28;;;6.11;69.84
39487;BME280;25173;50.430;18.926;2022-12-07T01:51:41;97702.81;;;6.15;69.86
39487;BME280;25173;50.430;18.926;2022-12-07T01:54:47;97703.69;;;6.21;69.80
39487;BME280;25173;50.430;18.926;2022-12-07T01:57:52;97706.47;;;6.31;69.60
39487;BME280;25173;50.430;18.926;2022-12-07T02:00:54;97704.03;;;6.30;69.20
39487;BME280;25173;50.430;18.926;2022-12-07T02:03:55;97705.66;;;6.31;69.46
39487;BME280;25173;50.430;18.926;2022-12-07T02:06:57;97706.44;;;6.26;69.14
39487;BME280;25173;50.430;18.926;2022-12-07T02:10:15;97707.44;;;6.15;69.27
39487;BME280;25173;50.430;18.926;2022-12-07T02:13:20;97699.25;;;6.10;69.33
39487;BME280;25173;50.430;18.926;2022-12-07T02:16:44;97696.25;;;6.06;69.34
39487;BME280;25173;50.430;18.926;2022-12-07T02:20:23;97698.44;;;6.09;69.52
39487;BME280;25173;50.430;18.926;2022-12-07T02:27:02;97695.97;;;6.08;69.51
39487;BME280;25173;50.430;18.926;2022-12-07T02:33:33;97691.00;;;5.95;69.36
39487;BME280;25173;50.430;18.926;2022-12-07T02:36:39;97691.56;;;5.97;69.76
39487;BME280;25173;50.430;18.926;2022-12-07T02:39:55;97690.75;;;5.96;69.27
39487;BME280;25173;50.430;18.926;2022-12-07T02:43:11;97689.06;;;5.90;69.73
39487;BME280;25173;50.430;18.926;2022-12-07T02:46:16;97687.75;;;5.93;69.49
39487;BME280;25173;50.430;18.926;2022-12-07T02:49:18;97687.44;;;5.89;69.55
39487;BME280;25173;50.430;18.926;2022-12-07T02:52:19;97680.56;;;5.81;69.54
39487;BME280;25173;50.430;18.926;2022-12-07T02:55:25;97674.00;;;5.72;69.83
39487;BME280;25173;50.430;18.926;2022-12-07T03:12:34;97675.91;;;5.50;69.93
39487;BME280;25173;50.430;18.926;2022-12-07T03:15:43;97668.84;;;5.44;70.05
39487;BME280;25173;50.430;18.926;2022-12-07T03:18:51;97662.25;;;5.35;70.17
39487;BME280;25173;50.430;18.926;2022-12-07T03:22:07;97660.56;;;5.29;70.37
39487;BME280;25173;50.430;18.926;2022-12-07T03:25:11;97664.91;;;5.30;70.37
39487;BME280;25173;50.430;18.926;2022-12-07T03:28:16;97662.19;;;5.30;70.66
39487;BME280;25173;50.430;18.926;2022-12-07T03:31:22;97656.81;;;5.30;70.40
39487;BME280;25173;50.430;18.926;2022-12-07T03:34:32;97654.16;;;5.35;70.77
39487;BME280;25173;50.430;18.926;2022-12-07T03:37:45;97659.63;;;5.40;70.64
39487;BME280;25173;50.430;18.926;2022-12-07T03:40:56;97653.22;;;5.46;70.39
39487;BME280;25173;50.430;18.926;2022-12-07T03:43:59;97657.59;;;5.52;70.51
39487;BME280;25173;50.430;18.926;2022-12-07T03:50:15;97651.13;;;5.53;70.19
39487;BME280;25173;50.430;18.926;2022-12-07T03:53:32;97647.16;;;5.61;70.38
39487;BME280;25173;50.430;18.926;2022-12-07T03:56:35;97649.06;;;5.65;70.08
39487;BME280;25173;50.430;18.926;2022-12-07T03:59:37;97647.19;;;5.66;69.84
39487;BME280;25173;50.430;18.926;2022-12-07T04:02:39;97657.63;;;5.57;69.60
39487;BME280;25173;50.430;18.926;2022-12-07T04:05:40;97648.88;;;5.45;70.11
39487;BME280;25173;50.430;18.926;2022-12-07T04:08:42;97652.06;;;5.42;70.39
39487;BME280;25173;50.430;18.926;2022-12-07T04:11:43;97640.19;;;5.43;70.11
39487;BME280;25173;50.430;18.926;2022-12-07T04:14:44;97646.00;;;5.30;70.07
39487;BME280;25173;50.430;18.926;2022-12-07T04:17:45;97650.53;;;5.24;70.48
39487;BME280;25173;50.430;18.926;2022-12-07T04:20:46;97642.34;;;5.19;70.57
39487;BME280;25173;50.430;18.926;2022-12-07T04:23:46;97645.78;;;5.10;70.76
39487;BME280;25173;50.430;18.926;2022-12-07T04:26:47;97644.19;;;5.14;70.96
39487;BME280;25173;50.430;18.926;2022-12-07T04:29:48;97652.28;;;5.14;70.78
39487;BME280;25173;50.430;18.926;2022-12-07T04:32:48;97648.91;;;5.01;70.93
39487;BME280;25173;50.430;18.926;2022-12-07T04:35:49;97645.81;;;4.93;70.97
39487;BME280;25173;50.430;18.926;2022-12-07T04:38:49;97651.06;;;4.83;71.19
39487;BME280;25173;50.430;18.926;2022-12-07T04:41:50;97645.06;;;4.76;71.37
39487;BME280;25173;50.430;18.926;2022-12-07T04:44:51;97652.31;;;4.75;71.63
39487;BME280;25173;50.430;18.926;2022-12-07T04:47:52;97647.44;;;4.72;71.55
39487;BME280;25173;50.430;18.926;2022-12-07T04:50:52;97652.59;;;4.74;71.77
39487;BME280;25173;50.430;18.926;2022-12-07T04:53:54;97646.38;;;4.73;71.64
39487;BME280;25173;50.430;18.926;2022-12-07T04:56:55;97641.47;;;4.70;71.75
39487;BME280;25173;50.430;18.926;2022-12-07T04:59:56;97640.41;;;4.71;71.86
39487;BME280;25173;50.430;18.926;2022-12-07T05:02:57;97645.00;;;4.71;71.66
39487;BME280;25173;50.430;18.926;2022-12-07T05:05:57;97645.00;;;4.71;71.84
39487;BME280;25173;50.430;18.926;2022-12-07T05:08:58;97656.13;;;4.74;71.78
39487;BME280;25173;50.430;18.926;2022-12-07T05:11:58;97646.38;;;4.73;71.75
39487;BME280;25173;50.430;18.926;2022-12-07T05:14:59;97646.88;;;4.70;71.85
39487;BME280;25173;50.430;18.926;2022-12-07T05:17:59;97647.53;;;4.60;71.90
39487;BME280;25173;50.430;18.926;2022-12-07T05:21:00;97647.88;;;4.64;72.06
39487;BME280;25173;50.430;18.926;2022-12-07T05:24:01;97641.03;;;4.56;72.16
39487;BME280;25173;50.430;18.926;2022-12-07T05:27:02;97646.91;;;4.53;72.30
39487;BME280;25173;50.430;18.926;2022-12-07T05:30:03;97644.47;;;4.52;72.45
39487;BME280;25173;50.430;18.926;2022-12-07T05:33:04;97653.44;;;4.57;72.46
39487;BME280;25173;50.430;18.926;2022-12-07T05:36:05;97651.41;;;4.48;72.27
39487;BME280;25173;50.430;18.926;2022-12-07T05:39:09;97645.44;;;4.46;72.55
39487;BME280;25173;50.430;18.926;2022-12-07T05:42:10;97653.09;;;4.54;72.71
39487;BME280;25173;50.430;18.926;2022-12-07T05:45:14;97656.97;;;4.58;72.53
39487;BME280;25173;50.430;18.926;2022-12-07T05:48:15;97647.72;;;4.54;72.38
39487;BME280;25173;50.430;18.926;2022-12-07T05:51:16;97652.63;;;4.57;72.58
39487;BME280;25173;50.430;18.926;2022-12-07T05:54:17;97653.75;;;4.61;72.58
39487;BME280;25173;50.430;18.926;2022-12-07T05:57:18;97656.03;;;4.69;72.51
39487;BME280;25173;50.430;18.926;2022-12-07T06:00:19;97651.81;;;4.56;72.57
39487;BME280;25173;50.430;18.926;2022-12-07T06:03:19;97656.22;;;4.46;72.68
39487;BME280;25173;50.430;18.926;2022-12-07T06:06:20;97657.81;;;4.42;72.96
39487;BME280;25173;50.430;18.926;2022-12-07T06:09:23;97655.41;;;4.45;72.90
39487;BME280;25173;50.430;18.926;2022-12-07T06:12:23;97665.13;;;4.46;73.03
39487;BME280;25173;50.430;18.926;2022-12-07T06:15:38;97673.72;;;4.43;73.04
39487;BME280;25173;50.430;18.926;2022-12-07T06:18:39;97675.50;;;4.38;73.04
39487;BME280;25173;50.430;18.926;2022-12-07T06:21:40;97665.97;;;4.30;73.35
39487;BME280;25173;50.430;18.926;2022-12-07T06:24:40;97664.34;;;4.29;73.48
39487;BME280;25173;50.430;18.926;2022-12-07T06:27:41;97676.50;;;4.32;73.36
39487;BME280;25173;50.430;18.926;2022-12-07T06:30:41;97670.56;;;4.29;73.48
39487;BME280;25173;50.430;18.926;2022-12-07T06:33:42;97675.19;;;4.34;73.37
39487;BME280;25173;50.430;18.926;2022-12-07T06:36:43;97682.06;;;4.25;73.36
39487;BME280;25173;50.430;18.926;2022-12-07T06:39:44;97682.22;;;4.18;73.59
39487;BME280;25173;50.430;18.926;2022-12-07T06:42:45;97676.66;;;4.08;73.89
39487;BME280;25173;50.430;18.926;2022-12-07T06:45:46;97684.50;;;4.10;74.13
39487;BME280;25173;50.430;18.926;2022-12-07T06:48:47;97682.63;;;4.10;73.89
39487;BME280;25173;50.430;18.926;2022-12-07T06:51:47;97682.56;;;4.05;74.12
39487;BME280;25173;50.430;18.926;2022-12-07T06:54:48;97683.28;;;4.17;74.31
39487;BME280;25173;50.430;18.926;2022-12-07T06:57:49;97685.00;;;4.23;73.93
39487;BME280;25173;50.430;18.926;2022-12-07T07:00:49;97678.66;;;4.29;74.17
39487;BME280;25173;50.430;18.926;2022-12-07T07:03:50;97689.09;;;4.43;74.08
39487;BME280;25173;50.430;18.926;2022-12-07T07:06:51;97687.63;;;4.52;73.74
39487;BME280;25173;50.430;18.926;2022-12-07T07:09:51;97692.03;;;4.58;73.65
39487;BME280;25173;50.430;18.926;2022-12-07T07:12:52;97695.19;;;4.55;73.37
39487;BME280;25173;50.430;18.926;2022-12-07T07:15:53;97690.88;;;4.54;73.52
39487;BME280;25173;50.430;18.926;2022-12-07T07:18:54;97694.06;;;4.51;73.50
39487;BME280;25173;50.430;18.926;2022-12-07T07:21:55;97693.78;;;4.52;73.61
39487;BME280;25173;50.430;18.926;2022-12-07T07:24:55;97681.47;;;4.56;73.65
39487;BME280;25173;50.430;18.926;2022-12-07T07:27:56;97688.91;;;4.66;73.75
39487;BME280;25173;50.430;18.926;2022-12-07T07:30:57;97690.91;;;4.76;73.40
39487;BME280;25173;50.430;18.926;2022-12-07T07:33:57;97692.31;;;4.78;73.36
39487;BME280;25173;50.430;18.926;2022-12-07T07:36:58;97688.53;;;4.79;73.30
39487;BME280;25173;50.430;18.926;2022-12-07T07:39:58;97689.84;;;4.77;72.95
39487;BME280;25173;50.430;18.926;2022-12-07T07:42:59;97694.75;;;4.80;73.26
39487;BME280;25173;50.430;18.926;2022-12-07T07:46:00;97692.06;;;4.80;72.95
39487;BME280;25173;50.430;18.926;2022-12-07T07:49:00;97692.31;;;4.78;73.26
39487;BME280;25173;50.430;18.926;2022-12-07T07:52:01;97694.56;;;4.86;73.71
39487;BME280;25173;50.430;18.926;2022-12-07T07:55:02;97700.66;;;4.98;73.41
39487;BME280;25173;50.430;18.926;2022-12-07T07:58:03;97696.81;;;5.11;73.12
39487;BME280;25173;50.430;18.926;2022-12-07T08:01:07;97705.78;;;5.17;72.92
39487;BME280;25173;50.430;18.926;2022-12-07T08:04:07;97704.44;;;5.19;73.09
39487;BME280;25173;50.430;18.926;2022-12-07T08:07:08;97706.97;;;5.26;72.88
39487;BME280;25173;50.430;18.926;2022-12-07T08:10:11;97704.19;;;5.21;72.55
39487;BME280;25173;50.430;18.926;2022-12-07T08:13:15;97712.91;;;5.28;72.98
39487;BME280;25173;50.430;18.926;2022-12-07T08:16:16;97703.13;;;5.22;72.67
39487;BME280;25173;50.430;18.926;2022-12-07T08:19:17;97707.47;;;5.23;72.54
39487;BME280;25173;50.430;18.926;2022-12-07T08:22:17;97718.22;;;5.18;72.61
39487;BME280;25173;50.430;18.926;2022-12-07T08:25:18;97717.56;;;5.11;72.39
39487;BME280;25173;50.430;18.926;2022-12-07T08:28:19;97721.81;;;5.06;72.72
39487;BME280;25173;50.430;18.926;2022-12-07T08:31:20;97725.03;;;5.03;72.83
39487;BME280;25173;50.430;18.926;2022-12-07T08:34:20;97724.22;;;5.03;72.91
39487;BME280;25173;50.430;18.926;2022-12-07T08:37:21;97720.00;;;5.12;73.28
39487;BME280;25173;50.430;18.926;2022-12-07T08:40:22;97726.84;;;5.20;72.92
39487;BME280;25173;50.430;18.926;2022-12-07T08:43:23;97722.41;;;5.30;72.83
39487;BME280;25173;50.430;18.926;2022-12-07T08:46:29;97732.97;;;5.32;72.39
39487;BME280;25173;50.430;18.926;2022-12-07T08:49:43;97730.25;;;5.32;72.55
39487;BME280;25173;50.430;18.926;2022-12-07T08:52:51;97743.56;;;5.38;72.68
39487;BME280;25173;50.430;18.926;2022-12-07T08:55:55;97729.22;;;5.33;72.18
39487;BME280;25173;50.430;18.926;2022-12-07T08:58:57;97733.59;;;5.39;72.65
39487;BME280;25173;50.430;18.926;2022-12-07T09:01:58;97736.53;;;5.37;72.18
39487;BME280;25173;50.430;18.926;2022-12-07T09:04:58;97743.19;;;5.30;72.20
39487;BME280;25173;50.430;18.926;2022-12-07T09:08:00;97742.63;;;5.28;72.27
39487;BME280;25173;50.430;18.926;2022-12-07T09:11:02;97736.72;;;5.31;72.58
39487;BME280;25173;50.430;18.926;2022-12-07T09:14:02;97725.94;;;5.31;72.47
39487;BME280;25173;50.430;18.926;2022-12-07T09:17:08;97721.94;;;5.33;72.63
39487;BME280;25173;50.430;18.926;2022-12-07T09:20:09;97720.63;;;5.41;72.60
39487;BME280;25173;50.430;18.926;2022-12-07T09:23:10;97715.63;;;5.50;72.31
39487;BME280;25173;50.430;18.926;2022-12-07T09:26:11;97720.31;;;5.59;72.50
39487;BME280;25173;50.430;18.926;2022-12-07T09:29:11;97710.75;;;5.73;72.33
39487;BME280;25173;50.430;18.926;2022-12-07T09:32:12;97704.47;;;5.90;72.01
39487;BME280;25173;50.430;18.926;2022-12-07T09:35:13;97704.88;;;6.03;71.76
39487;BME280;25173;50.430;18.926;2022-12-07T09:38:14;97698.81;;;6.23;71.70
39487;BME280;25173;50.430;18.926;2022-12-07T09:41:15;97694.91;;;6.41;71.49
39487;BME280;25173;50.430;18.926;2022-12-07T09:44:21;97693.72;;;6.58;70.93
39487;BME280;25173;50.430;18.926;2022-12-07T09:47:23;97687.31;;;6.75;70.74
39487;BME280;25173;50.430;18.926;2022-12-07T09:50:26;97676.56;;;6.90;70.54
39487;BME280;25173;50.430;18.926;2022-12-07T09:53:33;97681.53;;;7.03;70.15
39487;BME280;25173;50.430;18.926;2022-12-07T09:56:34;97683.75;;;7.11;69.71
39487;BME280;25173;50.430;18.926;2022-12-07T09:59:35;97681.06;;;7.21;69.70
39487;BME280;25173;50.430;18.926;2022-12-07T10:02:37;97669.16;;;7.27;69.15
39487;BME280;25173;50.430;18.926;2022-12-07T10:05:42;97675.19;;;7.39;69.38
39487;BME280;25173;50.430;18.926;2022-12-07T10:08:44;97663.03;;;7.47;68.85
39487;BME280;25173;50.430;18.926;2022-12-07T10:15:04;97650.59;;;7.61;68.52
39487;BME280;25173;50.430;18.926;2022-12-07T10:18:18;97649.78;;;7.66;68.18
39487;BME280;25173;50.430;18.926;2022-12-07T10:21:22;97637.88;;;7.72;68.26
39487;BME280;25173;50.430;18.926;2022-12-07T10:24:26;97642.75;;;7.75;67.98
39487;BME280;25173;50.430;18.926;2022-12-07T10:27:31;97638.72;;;7.83;67.99
39487;BME280;25173;50.430;18.926;2022-12-07T10:30:32;97637.91;;;7.87;67.78
39487;BME280;25173;50.430;18.926;2022-12-07T10:33:44;97631.94;;;7.90;67.67
39487;BME280;25173;50.430;18.926;2022-12-07T10:36:48;97636.56;;;7.90;67.39
39487;BME280;25173;50.430;18.926;2022-12-07T10:43:23;97628.41;;;7.95;66.56
39487;BME280;25173;50.430;18.926;2022-12-07T10:56:56;97627.59;;;7.84;67.18
39487;BME280;25173;50.430;18.926;2022-12-07T11:06:50;97622.19;;;7.84;67.36
39487;BME280;25173;50.430;18.926;2022-12-07T11:20:27;97622.19;;;7.89;66.10
39487;BME280;25173;50.430;18.926;2022-12-07T11:23:59;97616.75;;;7.84;66.21
39487;BME280;25173;50.430;18.926;2022-12-07T11:30:31;97599.69;;;7.89;66.68
39487;BME280;25173;50.430;18.926;2022-12-07T11:33:55;97589.63;;;7.94;66.07
39487;BME280;25173;50.430;18.926;2022-12-07T11:37:02;97596.97;;;7.94;66.28
39487;BME280;25173;50.430;18.926;2022-12-07T11:40:17;97591.00;;;7.92;66.30
39487;BME280;25173;50.430;18.926;2022-12-07T11:43:24;97579.63;;;8.00;66.35
39487;BME280;25173;50.430;18.926;2022-12-07T11:46:35;97584.75;;;8.11;66.26
39487;BME280;25173;50.430;18.926;2022-12-07T11:49:43;97583.66;;;8.23;66.10
39487;BME280;25173;50.430;18.926;2022-12-07T11:52:53;97582.59;;;8.34;65.60
39487;BME280;25173;50.430;18.926;2022-12-07T11:56:16;97586.91;;;8.45;65.47
39487;BME280;25173;50.430;18.926;2022-12-07T11:59:23;97582.56;;;8.54;65.58
39487;BME280;25173;50.430;18.926;2022-12-07T12:02:36;97581.13;;;8.77;65.40
39487;BME280;25173;50.430;18.926;2022-12-07T12:05:40;97581.88;;;8.98;65.46
39487;BME280;25173;50.430;18.926;2022-12-07T12:08:46;97595.38;;;9.13;64.85
39487;BME280;25173;50.430;18.926;2022-12-07T12:12:01;97596.47;;;9.17;64.35
39487;BME280;25173;50.430;18.926;2022-12-07T12:21:54;97581.50;;;8.50;64.26
39487;BME280;25173;50.430;18.926;2022-12-07T12:24:56;97583.94;;;8.46;64.44
39487;BME280;25173;50.430;18.926;2022-12-07T12:27:59;97566.31;;;8.44;64.47
39487;BME280;25173;50.430;18.926;2022-12-07T12:34:39;97555.22;;;8.15;64.42
39487;BME280;25173;50.430;18.926;2022-12-07T12:37:41;97556.00;;;8.15;64.73
39487;BME280;25173;50.430;18.926;2022-12-07T12:40:43;97554.91;;;8.16;64.70
39487;BME280;25173;50.430;18.926;2022-12-07T12:43:49;97558.19;;;8.18;64.92
39487;BME280;25173;50.430;18.926;2022-12-07T12:53:33;97544.63;;;8.13;64.70
39487;BME280;25173;50.430;18.926;2022-12-07T13:02:56;97556.56;;;7.97;64.69
39487;BME280;25173;50.430;18.926;2022-12-07T13:06:19;97551.69;;;7.94;64.34
39487;BME280;25173;50.430;18.926;2022-12-07T13:09:24;97556.84;;;7.91;64.83
39487;BME280;25173;50.430;18.926;2022-12-07T13:12:26;97541.94;;;7.88;65.17
39487;BME280;25173;50.430;18.926;2022-12-07T13:24:35;97558.19;;;7.88;64.99
39487;BME280;25173;50.430;18.926;2022-12-07T13:27:39;97562.28;;;7.91;65.11
39487;BME280;25173;50.430;18.926;2022-12-07T13:34:36;97562.56;;;7.84;64.56
39487;BME280;25173;50.430;18.926;2022-12-07T13:37:37;97555.47;;;7.73;64.85
39487;BME280;25173;50.430;18.926;2022-12-07T13:40:38;97557.91;;;7.64;65.03
39487;BME280;25173;50.430;18.926;2022-12-07T13:43:44;97568.75;;;7.59;64.86
39487;BME280;25173;50.430;18.926;2022-12-07T13:50:29;97574.44;;;7.58;64.69
39487;BME280;25173;50.430;18.926;2022-12-07T13:53:30;97578.78;;;7.54;64.19
39487;BME280;25173;50.430;18.926;2022-12-07T13:56:33;97580.41;;;7.55;64.92
39487;BME280;25173;50.430;18.926;2022-12-07T13:59:34;97589.59;;;7.44;64.94
39487;BME280;25173;50.430;18.926;2022-12-07T14:02:55;97581.19;;;7.40;64.90
39487;BME280;25173;50.430;18.926;2022-12-07T14:06:46;97580.66;;;7.38;65.15
39487;BME280;25173;50.430;18.926;2022-12-07T14:09:29;97590.38;;;7.34;65.30
39487;BME280;25173;50.430;18.926;2022-12-07T14:12:32;97590.63;;;7.22;65.50
39487;BME280;25173;50.430;18.926;2022-12-07T14:15:34;97594.91;;;7.13;65.55
39487;BME280;25173;50.430;18.926;2022-12-07T14:18:38;97604.66;;;7.09;65.58
39487;BME280;25173;50.430;18.926;2022-12-07T14:21:39;97612.47;;;7.00;65.93
39487;BME280;25173;50.430;18.926;2022-12-07T14:24:43;97618.72;;;7.01;66.06
39487;BME280;25173;50.430;18.926;2022-12-07T14:27:51;97607.34;;;7.04;66.13
39487;BME280;25173;50.430;18.926;2022-12-07T14:30:56;97611.16;;;7.03;65.96
39487;BME280;25173;50.430;18.926;2022-12-07T14:33:59;97608.44;;;7.08;65.87
39487;BME280;25173;50.430;18.926;2022-12-07T14:37:00;97609.25;;;7.04;65.91
39487;BME280;25173;50.430;18.926;2022-12-07T14:40:01;97615.69;;;6.97;66.11
39487;BME280;25173;50.430;18.926;2022-12-07T14:43:05;97623.31;;;7.00;66.11
39487;BME280;25173;50.430;18.926;2022-12-07T14:46:08;97621.41;;;6.96;65.76
39487;BME280;25173;50.430;18.926;2022-12-07T14:49:09;97625.19;;;6.95;65.98
39487;BME280;25173;50.430;18.926;2022-12-07T14:52:24;97629.47;;;6.91;65.89
39487;BME280;25173;50.430;18.926;2022-12-07T14:55:29;97625.69;;;6.87;66.12
39487;BME280;25173;50.430;18.926;2022-12-07T14:58:30;97622.16;;;6.86;65.94
39487;BME280;25173;50.430;18.926;2022-12-07T15:01:30;97621.09;;;6.87;65.84
39487;BME280;25173;50.430;18.926;2022-12-07T15:04:31;97629.72;;;6.84;65.55
39487;BME280;25173;50.430;18.926;2022-12-07T15:07:32;97621.28;;;6.76;65.46
39487;BME280;25173;50.430;18.926;2022-12-07T15:10:33;97626.97;;;6.74;65.33
39487;BME280;25173;50.430;18.926;2022-12-07T15:13:34;97625.06;;;6.75;65.47
39487;BME280;25173;50.430;18.926;2022-12-07T15:16:53;97625.06;;;6.75;65.25
39487;BME280;25173;50.430;18.926;2022-12-07T15:19:53;97623.97;;;6.71;65.40
39487;BME280;25173;50.430;18.926;2022-12-07T15:22:54;97617.50;;;6.72;65.49
39487;BME280;25173;50.430;18.926;2022-12-07T15:25:55;97618.31;;;6.77;65.58
39487;BME280;25173;50.430;18.926;2022-12-07T15:28:55;97621.03;;;6.82;65.56
39487;BME280;25173;50.430;18.926;2022-12-07T15:31:56;97610.53;;;6.86;65.67
39487;BME280;25173;50.430;18.926;2022-12-07T15:34:57;97614.88;;;6.92;65.37
39487;BME280;25173;50.430;18.926;2022-12-07T15:37:58;97616.81;;;6.96;65.32
39487;BME280;25173;50.430;18.926;2022-12-07T15:40:59;97607.59;;;6.97;65.11
39487;BME280;25173;50.430;18.926;2022-12-07T15:43:59;97625.22;;;7.05;65.34
39487;BME280;25173;50.430;18.926;2022-12-07T15:47:19;97622.00;;;7.13;65.00
39487;BME280;25173;50.430;18.926;2022-12-07T15:50:20;97624.97;;;7.12;64.80
39487;BME280;25173;50.430;18.926;2022-12-07T15:53:20;97632.31;;;7.11;64.80
39487;BME280;25173;50.430;18.926;2022-12-07T15:56:21;97624.13;;;7.06;64.73
39487;BME280;25173;50.430;18.926;2022-12-07T15:59:25;97623.56;;;7.04;64.82
39487;BME280;25173;50.430;18.926;2022-12-07T16:02:30;97619.22;;;6.98;64.67
39487;BME280;25173;50.430;18.926;2022-12-07T16:05:30;97623.25;;;6.85;64.48
39487;BME280;25173;50.430;18.926;2022-12-07T16:08:31;97619.13;;;6.78;64.67
39487;BME280;25173;50.430;18.926;2022-12-07T16:11:33;97625.59;;;6.72;64.59
39487;BME280;25173;50.430;18.926;2022-12-07T16:14:34;97627.16;;;6.62;64.42
39487;BME280;25173;50.430;18.926;2022-12-07T16:17:35;97629.28;;;6.55;64.59
39487;BME280;25173;50.430;18.926;2022-12-07T16:20:35;97630.63;;;6.53;64.33
39487;BME280;25173;50.430;18.926;2022-12-07T16:23:36;97631.44;;;6.53;64.78
39487;BME280;25173;50.430;18.926;2022-12-07T16:26:37;97630.38;;;6.54;64.40
39487;BME280;25173;50.430;18.926;2022-12-07T16:29:37;97630.09;;;6.56;64.45
39487;BME280;25173;50.430;18.926;2022-12-07T16:32:38;97615.78;;;6.55;64.66
39487;BME280;25173;50.430;18.926;2022-12-07T16:35:39;97622.28;;;6.59;64.50
39487;BME280;25173;50.430;18.926;2022-12-07T16:38:42;97625.53;;;6.61;64.29
39487;BME280;25173;50.430;18.926;2022-12-07T16:41:43;97621.50;;;6.64;64.31
39487;BME280;25173;50.430;18.926;2022-12-07T16:44:44;97623.41;;;6.63;64.25
39487;BME280;25173;50.430;18.926;2022-12-07T16:47:44;97624.50;;;6.68;64.22
39487;BME280;25173;50.430;18.926;2022-12-07T16:50:45;97631.84;;;6.72;64.13
39487;BME280;25173;50.430;18.926;2022-12-07T16:53:47;97638.06;;;6.73;64.03
39487;BME280;25173;50.430;18.926;2022-12-07T16:56:47;97631.28;;;6.70;63.74
39487;BME280;25173;50.430;18.926;2022-12-07T16:59:48;97643.75;;;6.76;64.02
39487;BME280;25173;50.430;18.926;2022-12-07T17:02:58;97648.09;;;6.77;63.88
39487;BME280;25173;50.430;18.926;2022-12-07T17:06:14;97639.72;;;6.79;63.73
39487;BME280;25173;50.430;18.926;2022-12-07T17:09:15;97631.84;;;6.72;63.87
39487;BME280;25173;50.430;18.926;2022-12-07T17:12:17;97638.56;;;6.70;63.95
39487;BME280;25173;50.430;18.926;2022-12-07T17:15:17;97644.81;;;6.70;63.87
39487;BME280;25173;50.430;18.926;2022-12-07T17:18:18;97633.97;;;6.70;63.94
39487;BME280;25173;50.430;18.926;2022-12-07T17:21:19;97642.34;;;6.69;63.86
39487;BME280;25173;50.430;18.926;2022-12-07T17:24:20;97650.22;;;6.70;63.90
39487;BME280;25173;50.430;18.926;2022-12-07T17:27:21;97644.53;;;6.72;63.85
39487;BME280;25173;50.430;18.926;2022-12-07T17:30:22;97640.72;;;6.68;63.91
39487;BME280;25173;50.430;18.926;2022-12-07T17:33:22;97644.53;;;6.72;63.72
39487;BME280;25173;50.430;18.926;2022-12-07T17:36:27;97635.63;;;6.71;63.74
39487;BME280;25173;50.430;18.926;2022-12-07T17:39:28;97629.94;;;6.73;63.80
39487;BME280;25173;50.430;18.926;2022-12-07T17:42:29;97627.50;;;6.71;63.71
39487;BME280;25173;50.430;18.926;2022-12-07T17:45:47;97634.81;;;6.76;63.74
39487;BME280;25173;50.430;18.926;2022-12-07T17:48:48;97633.75;;;6.77;63.81
39487;BME280;25173;50.430;18.926;2022-12-07T17:51:49;97633.75;;;6.82;63.68
39487;BME280;25173;50.430;18.926;2022-12-07T17:55:08;97633.50;;;6.83;63.56
39487;BME280;25173;50.430;18.926;2022-12-07T17:58:09;97641.38;;;6.90;63.45